sensor_id;sensor_type;location;lat;lon;timestamp;pressure;altitude;pressure_sealevel;temperature;humidity
59190;BME280;50749;51.636;4.948;2023-02-24T00:01:17;101692.31;;;16.93;50.33
59190;BME280;50749;51.636;4.948;2023-02-24T00:04:04;101692.16;;;16.89;50.17
59190;BME280;50749;51.636;4.948;2023-02-24T00:06:35;101692.16;;;16.89;50.45
59190;BME280;50749;51.636;4.948;2023-02-24T00:09:04;101689.72;;;16.87;50.43
59190;BME280;50749;51.636;4.948;2023-02-24T00:11:34;101691.69;;;16.87;50.35
59190;BME280;50749;51.636;4.948;2023-02-24T00:14:04;101687.28;;;16.86;50.33
59190;BME280;50749;51.636;4.948;2023-02-24T00:16:32;101684.84;;;16.84;50.08
59190;BME280;50749;51.636;4.948;2023-02-24T00:18:58;101686.78;;;16.84;50.06
59190;BME280;50749;51.636;4.948;2023-02-24T00:21:25;101687.94;;;16.83;50.09
59190;BME280;50749;51.636;4.948;2023-02-24T00:23:51;101684.69;;;16.81;49.81
59190;BME280;50749;51.636;4.948;2023-02-24T00:26:18;101675.59;;;16.80;49.85
59190;BME280;50749;51.636;4.948;2023-02-24T00:28:44;101669.59;;;16.78;50.13
59190;BME280;50749;51.636;4.948;2023-02-24T00:31:15;101664.41;;;16.77;49.95
59190;BME280;50749;51.636;4.948;2023-02-24T00:33:43;101665.53;;;16.76;49.98
59190;BME280;50749;51.636;4.948;2023-02-24T00:36:12;101667.50;;;16.75;49.96
59190;BME280;50749;51.636;4.948;2023-02-24T00:38:39;101659.53;;;16.74;49.83
59190;BME280;50749;51.636;4.948;2023-02-24T00:41:11;101659.53;;;16.74;49.72
59190;BME280;50749;51.636;4.948;2023-02-24T00:43:39;101659.88;;;16.72;49.95
59190;BME280;50749;51.636;4.948;2023-02-24T00:46:06;101658.25;;;16.71;50.10
59190;BME280;50749;51.636;4.948;2023-02-24T00:48:39;101649.97;;;16.71;49.81
59190;BME280;50749;51.636;4.948;2023-02-24T00:51:07;101641.19;;;16.69;49.97
59190;BME280;50749;51.636;4.948;2023-02-24T00:53:38;101637.63;;;16.68;49.81
59190;BME280;50749;51.636;4.948;2023-02-24T00:56:05;101636.81;;;16.68;49.96
59190;BME280;50749;51.636;4.948;2023-02-24T00:58:34;101631.31;;;16.68;50.17
59190;BME280;50749;51.636;4.948;2023-02-24T01:01:01;101631.31;;;16.68;50.03
59190;BME280;50749;51.636;4.948;2023-02-24T01:03:28;101624.63;;;16.69;50.00
59190;BME280;50749;51.636;4.948;2023-02-24T01:05:54;101637.16;;;16.66;50.02
59190;BME280;50749;51.636;4.948;2023-02-24T01:08:20;101624.47;;;16.65;50.02
59190;BME280;50749;51.636;4.948;2023-02-24T01:10:57;101629.19;;;16.65;49.91
59190;BME280;50749;51.636;4.948;2023-02-24T01:13:43;101622.38;;;16.62;50.14
59190;BME280;50749;51.636;4.948;2023-02-24T01:16:09;101618.00;;;16.61;49.95
59190;BME280;50749;51.636;4.948;2023-02-24T01:18:35;101620.78;;;16.61;49.98
59190;BME280;50749;51.636;4.948;2023-02-24T01:21:01;101608.09;;;16.60;49.83
59190;BME280;50749;51.636;4.948;2023-02-24T01:23:26;101617.50;;;16.59;49.85
59190;BME280;50749;51.636;4.948;2023-02-24T01:25:52;101610.38;;;16.58;49.72
59190;BME280;50749;51.636;4.948;2023-02-24T01:28:18;101609.59;;;16.58;50.10
59190;BME280;50749;51.636;4.948;2023-02-24T01:30:44;101600.16;;;16.59;49.95
59190;BME280;50749;51.636;4.948;2023-02-24T01:33:10;101602.09;;;16.58;49.97
59190;BME280;50749;51.636;4.948;2023-02-24T01:35:42;101598.53;;;16.58;50.07
59190;BME280;50749;51.636;4.948;2023-02-24T01:38:08;101596.09;;;16.56;50.28
59190;BME280;50749;51.636;4.948;2023-02-24T01:40:34;101590.59;;;16.56;50.32
59190;BME280;50749;51.636;4.948;2023-02-24T01:42:59;101587.81;;;16.56;50.28
59190;BME280;50749;51.636;4.948;2023-02-24T01:45:27;101590.59;;;16.56;50.56
59190;BME280;50749;51.636;4.948;2023-02-24T01:47:59;101579.53;;;16.56;50.57
59190;BME280;50749;51.636;4.948;2023-02-24T01:50:28;101570.44;;;16.56;50.29
59190;BME280;50749;51.636;4.948;2023-02-24T01:52:57;101570.44;;;16.56;50.27
59190;BME280;50749;51.636;4.948;2023-02-24T01:55:29;101572.06;;;16.57;50.33
59190;BME280;50749;51.636;4.948;2023-02-24T01:58:00;101549.97;;;16.57;50.28
59190;BME280;50749;51.636;4.948;2023-02-24T02:00:29;101555.03;;;16.55;50.32
59190;BME280;50749;51.636;4.948;2023-02-24T02:03:32;101548.69;;;16.54;50.33
59190;BME280;50749;51.636;4.948;2023-02-24T02:06:05;101539.94;;;16.52;50.40
59190;BME280;50749;51.636;4.948;2023-02-24T02:08:33;101528.88;;;16.52;50.39
59190;BME280;50749;51.636;4.948;2023-02-24T02:11:06;101527.28;;;16.51;50.43
59190;BME280;50749;51.636;4.948;2023-02-24T02:13:33;101520.63;;;16.52;50.44
59190;BME280;50749;51.636;4.948;2023-02-24T02:26:49;101508.97;;;16.46;50.10
59190;BME280;50749;51.636;4.948;2023-02-24T02:35:07;101488.19;;;16.40;50.08
59190;BME280;50749;51.636;4.948;2023-02-24T02:40:32;101489.00;;;16.41;50.53
59190;BME280;50749;51.636;4.948;2023-02-24T02:50:57;101481.88;;;16.40;50.51
59190;BME280;50749;51.636;4.948;2023-02-24T02:53:42;101482.22;;;16.38;50.53
59190;BME280;50749;51.636;4.948;2023-02-24T02:58:44;101477.81;;;16.37;50.02
59190;BME280;50749;51.636;4.948;2023-02-24T03:01:14;101474.59;;;16.35;50.41
59190;BME280;50749;51.636;4.948;2023-02-24T03:03:46;101463.56;;;16.35;50.25
59190;BME280;50749;51.636;4.948;2023-02-24T03:06:23;101461.13;;;16.33;49.91
59190;BME280;50749;51.636;4.948;2023-02-24T03:09:18;101462.28;;;16.32;50.35
59190;BME280;50749;51.636;4.948;2023-02-24T03:11:45;101465.38;;;16.31;50.03
59190;BME280;50749;51.636;4.948;2023-02-24T03:14:22;101453.50;;;16.30;50.10
59190;BME280;50749;51.636;4.948;2023-02-24T03:16:52;101450.75;;;16.30;50.01
59190;BME280;50749;51.636;4.948;2023-02-24T03:19:23;101446.06;;;16.31;50.44
59190;BME280;50749;51.636;4.948;2023-02-24T03:21:58;101440.53;;;16.31;50.35
59190;BME280;50749;51.636;4.948;2023-02-24T03:24:28;101438.09;;;16.29;50.16
59190;BME280;50749;51.636;4.948;2023-02-24T03:27:18;101437.28;;;16.29;49.89
59190;BME280;50749;51.636;4.948;2023-02-24T03:30:01;101436.47;;;16.28;50.15
59190;BME280;50749;51.636;4.948;2023-02-24T03:32:40;101432.13;;;16.27;49.82
59190;BME280;50749;51.636;4.948;2023-02-24T03:35:25;101430.50;;;16.26;49.87
59190;BME280;50749;51.636;4.948;2023-02-24T03:37:53;101428.84;;;16.25;49.82
59190;BME280;50749;51.636;4.948;2023-02-24T03:40:21;101430.03;;;16.24;49.74
59190;BME280;50749;51.636;4.948;2023-02-24T03:42:51;101423.66;;;16.24;49.99
59190;BME280;50749;51.636;4.948;2023-02-24T03:45:22;101428.38;;;16.23;49.67
59190;BME280;50749;51.636;4.948;2023-02-24T03:47:50;101426.75;;;16.22;50.00
59190;BME280;50749;51.636;4.948;2023-02-24T03:50:19;101420.59;;;16.25;49.90
59190;BME280;50749;51.636;4.948;2023-02-24T03:58:57;101403.81;;;16.39;50.70
59190;BME280;50749;51.636;4.948;2023-02-24T04:04:20;101384.09;;;16.49;49.97
59190;BME280;50749;51.636;4.948;2023-02-24T04:06:59;101387.94;;;16.57;49.80
59190;BME280;50749;51.636;4.948;2023-02-24T04:09:38;101392.59;;;16.65;49.96
59190;BME280;50749;51.636;4.948;2023-02-24T04:12:13;101390.09;;;16.72;49.72
59190;BME280;50749;51.636;4.948;2023-02-24T04:17:19;101385.47;;;16.85;49.44
59190;BME280;50749;51.636;4.948;2023-02-24T04:19:50;101388.84;;;16.91;49.22
59190;BME280;50749;51.636;4.948;2023-02-24T04:22:19;101390.59;;;16.96;49.37
59190;BME280;50749;51.636;4.948;2023-02-24T04:24:55;101381.75;;;17.02;49.15
59190;BME280;50749;51.636;4.948;2023-02-24T04:27:23;101367.75;;;17.07;49.13
59190;BME280;50749;51.636;4.948;2023-02-24T04:29:55;101370.28;;;17.13;49.10
59190;BME280;50749;51.636;4.948;2023-02-24T04:32:27;101374.81;;;17.17;49.14
59190;BME280;50749;51.636;4.948;2023-02-24T04:35:02;101372.63;;;17.23;49.22
59190;BME280;50749;51.636;4.948;2023-02-24T04:37:28;101373.25;;;17.29;49.03
59190;BME280;50749;51.636;4.948;2023-02-24T04:39:59;101369.91;;;17.35;49.19
59190;BME280;50749;51.636;4.948;2023-02-24T04:42:25;101376.03;;;17.41;49.07
59190;BME280;50749;51.636;4.948;2023-02-24T04:44:51;101366.72;;;17.45;49.21
59190;BME280;50749;51.636;4.948;2023-02-24T04:47:18;101357.06;;;17.52;48.80
59190;BME280;50749;51.636;4.948;2023-02-24T04:49:45;101359.13;;;17.55;48.92
59190;BME280;50749;51.636;4.948;2023-02-24T04:52:11;101351.78;;;17.59;48.93
59190;BME280;50749;51.636;4.948;2023-02-24T04:54:39;101363.75;;;17.63;49.09
59190;BME280;50749;51.636;4.948;2023-02-24T04:57:05;101350.38;;;17.65;49.08
59190;BME280;50749;51.636;4.948;2023-02-24T04:59:32;101344.16;;;17.68;49.01
59190;BME280;50749;51.636;4.948;2023-02-24T05:01:58;101345.09;;;17.72;48.84
59190;BME280;50749;51.636;4.948;2023-02-24T05:04:27;101333.72;;;17.74;49.09
59190;BME280;50749;51.636;4.948;2023-02-24T05:06:55;101330.22;;;17.77;48.83
59190;BME280;50749;51.636;4.948;2023-02-24T05:09:22;101325.19;;;17.79;48.82
59190;BME280;50749;51.636;4.948;2023-02-24T05:11:51;101323.22;;;17.79;48.68
59190;BME280;50749;51.636;4.948;2023-02-24T05:14:18;101322.41;;;17.79;48.65
59190;BME280;50749;51.636;4.948;2023-02-24T05:16:48;101317.22;;;17.77;49.02
59190;BME280;50749;51.636;4.948;2023-02-24T05:19:16;101312.16;;;17.79;48.54
59190;BME280;50749;51.636;4.948;2023-02-24T05:22:01;101319.75;;;17.82;48.45
59190;BME280;50749;51.636;4.948;2023-02-24T05:24:30;101302.47;;;17.86;48.45
59190;BME280;50749;51.636;4.948;2023-02-24T05:26:56;101297.88;;;17.90;48.82
59190;BME280;50749;51.636;4.948;2023-02-24T05:29:28;101301.94;;;17.92;48.50
59190;BME280;50749;51.636;4.948;2023-02-24T05:31:55;101299.63;;;17.94;48.50
59190;BME280;50749;51.636;4.948;2023-02-24T05:34:25;101288.56;;;17.94;48.38
59190;BME280;50749;51.636;4.948;2023-02-24T05:36:52;101297.31;;;17.96;48.45
59190;BME280;50749;51.636;4.948;2023-02-24T05:39:18;101296.63;;;17.99;48.39
59190;BME280;50749;51.636;4.948;2023-02-24T05:41:46;101290.38;;;18.03;48.49
59190;BME280;50749;51.636;4.948;2023-02-24T05:44:15;101292.81;;;18.04;48.25
59190;BME280;50749;51.636;4.948;2023-02-24T05:46:44;101287.38;;;18.08;48.23
59190;BME280;50749;51.636;4.948;2023-02-24T05:49:18;101282.31;;;18.10;48.59
59190;BME280;50749;51.636;4.948;2023-02-24T05:51:50;101276.41;;;18.11;49.28
59190;BME280;50749;51.636;4.948;2023-02-24T05:54:24;101272.50;;;18.12;48.82
59190;BME280;50749;51.636;4.948;2023-02-24T05:56:55;101257.50;;;18.13;48.41
59190;BME280;50749;51.636;4.948;2023-02-24T05:59:22;101250.00;;;18.14;48.40
59190;BME280;50749;51.636;4.948;2023-02-24T06:01:49;101253.59;;;18.14;48.41
59190;BME280;50749;51.636;4.948;2023-02-24T06:04:18;101259.13;;;18.14;48.22
59190;BME280;50749;51.636;4.948;2023-02-24T06:07:11;101245.75;;;18.16;48.25
59190;BME280;50749;51.636;4.948;2023-02-24T06:09:47;101237.78;;;18.15;48.18
59190;BME280;50749;51.636;4.948;2023-02-24T06:12:20;101225.94;;;18.14;48.37
59190;BME280;50749;51.636;4.948;2023-02-24T06:14:46;101232.25;;;18.15;48.11
59190;BME280;50749;51.636;4.948;2023-02-24T06:17:14;101222.34;;;18.14;48.29
59190;BME280;50749;51.636;4.948;2023-02-24T06:19:45;101213.34;;;18.17;48.11
59190;BME280;50749;51.636;4.948;2023-02-24T06:22:16;101215.41;;;18.20;48.15
59190;BME280;50749;51.636;4.948;2023-02-24T06:24:44;101213.44;;;18.20;48.52
59190;BME280;50749;51.636;4.948;2023-02-24T06:27:11;101215.06;;;18.22;48.92
59190;BME280;50749;51.636;4.948;2023-02-24T06:29:46;101204.00;;;18.22;48.65
59190;BME280;50749;51.636;4.948;2023-02-24T06:32:15;101207.91;;;18.20;48.82
59190;BME280;50749;51.636;4.948;2023-02-24T06:34:41;101207.91;;;18.20;48.93
59190;BME280;50749;51.636;4.948;2023-02-24T06:37:11;101200.44;;;18.21;49.00
59190;BME280;50749;51.636;4.948;2023-02-24T06:39:37;101198.47;;;18.22;49.36
59190;BME280;50749;51.636;4.948;2023-02-24T06:42:04;101197.31;;;18.23;49.62
59190;BME280;50749;51.636;4.948;2023-02-24T06:44:37;101196.03;;;18.20;48.97
59190;BME280;50749;51.636;4.948;2023-02-24T06:47:06;101193.63;;;18.18;49.58
59190;BME280;50749;51.636;4.948;2023-02-24T06:49:32;101183.38;;;18.19;49.24
59190;BME280;50749;51.636;4.948;2023-02-24T06:51:58;101184.19;;;18.19;49.46
59190;BME280;50749;51.636;4.948;2023-02-24T06:54:26;101187.28;;;18.18;49.70
59190;BME280;50749;51.636;4.948;2023-02-24T06:56:57;101186.94;;;18.19;49.61
59190;BME280;50749;51.636;4.948;2023-02-24T06:59:23;101182.56;;;18.18;49.85
59190;BME280;50749;51.636;4.948;2023-02-24T07:01:54;101175.44;;;18.17;49.76
59190;BME280;50749;51.636;4.948;2023-02-24T07:04:20;101167.13;;;18.17;49.64
59190;BME280;50749;51.636;4.948;2023-02-24T07:06:54;101155.22;;;18.17;50.01
59190;BME280;50749;51.636;4.948;2023-02-24T07:09:23;101157.19;;;18.16;50.20
59190;BME280;50749;51.636;4.948;2023-02-24T07:11:51;101155.56;;;18.15;49.84
59190;BME280;50749;51.636;4.948;2023-02-24T07:14:19;101160.31;;;18.15;50.02
59190;BME280;50749;51.636;4.948;2023-02-24T07:16:46;101157.09;;;18.13;49.94
59190;BME280;50749;51.636;4.948;2023-02-24T07:19:17;101154.69;;;18.11;50.24
59190;BME280;50749;51.636;4.948;2023-02-24T07:21:45;101162.53;;;18.09;50.17
59190;BME280;50749;51.636;4.948;2023-02-24T07:24:25;101163.22;;;18.06;49.95
59190;BME280;50749;51.636;4.948;2023-02-24T07:27:00;101167.16;;;18.05;50.17
59190;BME280;50749;51.636;4.948;2023-02-24T07:29:29;101166.69;;;18.03;50.13
59190;BME280;50749;51.636;4.948;2023-02-24T07:32:00;101166.16;;;17.97;49.27
59190;BME280;50749;51.636;4.948;2023-02-24T07:34:28;101155.88;;;17.98;49.16
59190;BME280;50749;51.636;4.948;2023-02-24T07:36:55;101158.19;;;17.96;48.97
59190;BME280;50749;51.636;4.948;2023-02-24T07:39:22;101154.50;;;17.92;49.03
59190;BME280;50749;51.636;4.948;2023-02-24T07:41:49;101146.09;;;17.88;48.81
59190;BME280;50749;51.636;4.948;2023-02-24T07:44:19;101146.78;;;17.85;48.53
59190;BME280;50749;51.636;4.948;2023-02-24T07:46:45;101137.22;;;17.82;48.48
59190;BME280;50749;51.636;4.948;2023-02-24T07:49:16;101139.91;;;17.79;48.41
59190;BME280;50749;51.636;4.948;2023-02-24T07:51:45;101136.31;;;17.78;47.91
59190;BME280;50749;51.636;4.948;2023-02-24T07:54:12;101136.78;;;17.80;47.95
59190;BME280;50749;51.636;4.948;2023-02-24T07:56:40;101115.69;;;17.76;47.67
59190;BME280;50749;51.636;4.948;2023-02-24T07:59:30;101114.78;;;17.72;47.55
59190;BME280;50749;51.636;4.948;2023-02-24T08:01:58;101115.84;;;17.67;47.44
59190;BME280;50749;51.636;4.948;2023-02-24T08:04:29;101126.44;;;17.65;47.08
59190;BME280;50749;51.636;4.948;2023-02-24T08:06:58;101110.56;;;17.62;46.99
59190;BME280;50749;51.636;4.948;2023-02-24T08:09:32;101107.31;;;17.60;47.21
59190;BME280;50749;51.636;4.948;2023-02-24T08:12:15;101106.41;;;17.56;46.84
59190;BME280;50749;51.636;4.948;2023-02-24T08:14:47;101109.88;;;17.53;47.08
59190;BME280;50749;51.636;4.948;2023-02-24T08:17:24;101103.44;;;17.49;46.86
59190;BME280;50749;51.636;4.948;2023-02-24T08:19:52;101101.38;;;17.45;46.88
59190;BME280;50749;51.636;4.948;2023-02-24T08:22:38;101100.09;;;17.43;47.18
59190;BME280;50749;51.636;4.948;2023-02-24T08:25:09;101099.66;;;17.41;47.38
59190;BME280;50749;51.636;4.948;2023-02-24T08:27:36;101090.47;;;17.37;46.98
59190;BME280;50749;51.636;4.948;2023-02-24T08:30:04;101078.59;;;17.36;47.37
59190;BME280;50749;51.636;4.948;2023-02-24T08:32:38;101085.28;;;17.35;47.43
59190;BME280;50749;51.636;4.948;2023-02-24T08:35:14;101073.28;;;17.31;47.22
59190;BME280;50749;51.636;4.948;2023-02-24T08:37:45;101063.31;;;17.26;47.07
59190;BME280;50749;51.636;4.948;2023-02-24T08:40:29;101062.81;;;17.24;47.16
59190;BME280;50749;51.636;4.948;2023-02-24T08:43:11;101065.94;;;17.23;47.14
59190;BME280;50749;51.636;4.948;2023-02-24T08:48:34;101052.00;;;17.19;47.03
59190;BME280;50749;51.636;4.948;2023-02-24T08:51:05;101045.25;;;17.17;47.33
59190;BME280;50749;51.636;4.948;2023-02-24T08:53:31;101038.09;;;17.16;47.48
59190;BME280;50749;51.636;4.948;2023-02-24T08:55:58;101026.59;;;17.14;47.13
59190;BME280;50749;51.636;4.948;2023-02-24T08:58:25;101024.97;;;17.13;47.06
59190;BME280;50749;51.636;4.948;2023-02-24T09:00:57;101021.75;;;17.11;47.06
59190;BME280;50749;51.636;4.948;2023-02-24T09:03:26;101019.78;;;17.11;47.67
59190;BME280;50749;51.636;4.948;2023-02-24T09:08:26;101016.69;;;17.13;47.27
59190;BME280;50749;51.636;4.948;2023-02-24T09:11:01;101013.47;;;17.11;47.53
59190;BME280;50749;51.636;4.948;2023-02-24T09:13:36;101007.94;;;17.11;47.45
59190;BME280;50749;51.636;4.948;2023-02-24T09:16:08;101005.88;;;17.07;47.10
59190;BME280;50749;51.636;4.948;2023-02-24T09:18:41;101001.53;;;17.06;47.53
59190;BME280;50749;51.636;4.948;2023-02-24T09:21:12;100997.16;;;17.05;47.43
59190;BME280;50749;51.636;4.948;2023-02-24T09:24:02;100988.41;;;17.03;47.08
59190;BME280;50749;51.636;4.948;2023-02-24T09:26:34;100995.53;;;17.04;47.49
59190;BME280;50749;51.636;4.948;2023-02-24T09:29:12;100993.59;;;17.05;47.08
59190;BME280;50749;51.636;4.948;2023-02-24T09:31:56;100987.59;;;17.03;47.04
59190;BME280;50749;51.636;4.948;2023-02-24T09:34:34;100990.72;;;17.01;47.07
59190;BME280;50749;51.636;4.948;2023-02-24T09:37:00;100991.41;;;16.98;47.21
59190;BME280;50749;51.636;4.948;2023-02-24T09:39:32;100987.03;;;16.97;47.24
59190;BME280;50749;51.636;4.948;2023-02-24T09:42:27;100978.63;;;16.94;47.15
59190;BME280;50749;51.636;4.948;2023-02-24T09:45:03;100982.19;;;16.94;47.38
59190;BME280;50749;51.636;4.948;2023-02-24T09:47:44;100982.88;;;16.91;46.93
59190;BME280;50749;51.636;4.948;2023-02-24T09:52:54;100974.16;;;16.89;46.92
59190;BME280;50749;51.636;4.948;2023-02-24T09:55:37;100967.03;;;16.88;46.95
59190;BME280;50749;51.636;4.948;2023-02-24T10:09:36;100962.06;;;16.81;46.68
59190;BME280;50749;51.636;4.948;2023-02-24T10:12:08;100966.31;;;16.79;47.23
59190;BME280;50749;51.636;4.948;2023-02-24T10:17:22;100965.88;;;16.77;46.82
59190;BME280;50749;51.636;4.948;2023-02-24T10:20:14;100959.88;;;16.75;46.82
59190;BME280;50749;51.636;4.948;2023-02-24T10:23:06;100960.22;;;16.73;47.24
59190;BME280;50749;51.636;4.948;2023-02-24T10:25:44;100950.69;;;16.70;47.08
59190;BME280;50749;51.636;4.948;2023-02-24T10:33:37;100929.75;;;16.69;47.46
59190;BME280;50749;51.636;4.948;2023-02-24T10:36:20;100929.75;;;16.69;47.21
59190;BME280;50749;51.636;4.948;2023-02-24T10:38:52;100927.09;;;16.73;47.62
59190;BME280;50749;51.636;4.948;2023-02-24T10:41:21;100927.91;;;16.74;47.54
59190;BME280;50749;51.636;4.948;2023-02-24T10:43:57;100925.84;;;16.70;47.88
59190;BME280;50749;51.636;4.948;2023-02-24T10:46:28;100930.91;;;16.68;47.28
59190;BME280;50749;51.636;4.948;2023-02-24T10:49:03;100929.28;;;16.67;47.17
59190;BME280;50749;51.636;4.948;2023-02-24T10:51:40;100913.88;;;16.66;47.32
59190;BME280;50749;51.636;4.948;2023-02-24T10:54:24;100911.47;;;16.65;47.49
59190;BME280;50749;51.636;4.948;2023-02-24T10:57:12;100917.78;;;16.65;47.47
59190;BME280;50749;51.636;4.948;2023-02-24T11:00:07;100911.03;;;16.63;47.64
59190;BME280;50749;51.636;4.948;2023-02-24T11:02:53;100920.56;;;16.65;47.71
59190;BME280;50749;51.636;4.948;2023-02-24T11:05:38;100920.22;;;16.67;47.60
59190;BME280;50749;51.636;4.948;2023-02-24T11:08:24;100912.28;;;16.65;47.53
59190;BME280;50749;51.636;4.948;2023-02-24T11:13:51;100905.59;;;16.66;47.78
59190;BME280;50749;51.636;4.948;2023-02-24T11:16:50;100901.69;;;16.67;48.27
59190;BME280;50749;51.636;4.948;2023-02-24T11:19:43;100886.03;;;16.71;48.56
59190;BME280;50749;51.636;4.948;2023-02-24T11:22:14;100883.38;;;16.75;48.07
59190;BME280;50749;51.636;4.948;2023-02-24T11:24:43;100890.97;;;16.78;48.41
59190;BME280;50749;51.636;4.948;2023-02-24T11:27:10;100879.25;;;16.81;48.26
59190;BME280;50749;51.636;4.948;2023-02-24T11:41:32;100870.03;;;16.89;48.02
59190;BME280;50749;51.636;4.948;2023-02-24T11:44:06;100864.03;;;16.87;48.24
59190;BME280;50749;51.636;4.948;2023-02-24T11:46:38;100861.28;;;16.87;48.36
59190;BME280;50749;51.636;4.948;2023-02-24T11:49:20;100856.59;;;16.88;48.42
59190;BME280;50749;51.636;4.948;2023-02-24T11:51:51;100851.06;;;16.88;48.17
59190;BME280;50749;51.636;4.948;2023-02-24T11:54:17;100855.75;;;16.87;48.43
59190;BME280;50749;51.636;4.948;2023-02-24T11:59:39;100849.44;;;16.87;48.47
59190;BME280;50749;51.636;4.948;2023-02-24T12:04:59;100841.50;;;16.85;48.72
59190;BME280;50749;51.636;4.948;2023-02-24T12:07:40;100828.03;;;16.84;48.83
59190;BME280;50749;51.636;4.948;2023-02-24T12:12:40;100825.59;;;16.82;49.07
59190;BME280;50749;51.636;4.948;2023-02-24T12:15:32;100825.59;;;16.82;49.04
59190;BME280;50749;51.636;4.948;2023-02-24T12:23:21;100805.03;;;16.80;49.12
59190;BME280;50749;51.636;4.948;2023-02-24T12:39:20;100790.75;;;16.78;49.40
59190;BME280;50749;51.636;4.948;2023-02-24T12:44:37;100778.47;;;16.75;49.21
59190;BME280;50749;51.636;4.948;2023-02-24T12:53:07;100762.97;;;16.70;49.29
59190;BME280;50749;51.636;4.948;2023-02-24T12:58:18;100761.38;;;16.69;49.55
59190;BME280;50749;51.636;4.948;2023-02-24T13:11:39;100754.94;;;16.65;49.37
59190;BME280;50749;51.636;4.948;2023-02-24T13:14:19;100743.09;;;16.65;49.52
59190;BME280;50749;51.636;4.948;2023-02-24T13:16:46;100737.59;;;16.65;49.32
59190;BME280;50749;51.636;4.948;2023-02-24T13:22:20;100742.19;;;16.61;49.64
59190;BME280;50749;51.636;4.948;2023-02-24T13:29:47;100734.56;;;16.70;50.07
59190;BME280;50749;51.636;4.948;2023-02-24T13:35:03;100710.81;;;16.81;49.76
59190;BME280;50749;51.636;4.948;2023-02-24T13:37:38;100701.22;;;16.91;50.06
59190;BME280;50749;51.636;4.948;2023-02-24T14:04:37;100695.00;;;17.58;49.99
59190;BME280;50749;51.636;4.948;2023-02-24T14:07:09;100695.34;;;17.56;49.90
59190;BME280;50749;51.636;4.948;2023-02-24T14:09:38;100683.50;;;17.56;49.82
59190;BME280;50749;51.636;4.948;2023-02-24T14:12:17;100687.88;;;17.57;49.88
59190;BME280;50749;51.636;4.948;2023-02-24T14:14:45;100669.69;;;17.56;49.84
59190;BME280;50749;51.636;4.948;2023-02-24T14:17:31;100668.53;;;17.57;49.83
59190;BME280;50749;51.636;4.948;2023-02-24T14:22:44;100672.09;;;17.57;49.64
59190;BME280;50749;51.636;4.948;2023-02-24T14:25:11;100678.75;;;17.56;50.12
59190;BME280;50749;51.636;4.948;2023-02-24T14:27:38;100670.47;;;17.56;49.62
59190;BME280;50749;51.636;4.948;2023-02-24T14:30:05;100666.13;;;17.55;49.64
59190;BME280;50749;51.636;4.948;2023-02-24T14:32:33;100665.66;;;17.53;49.98
59190;BME280;50749;51.636;4.948;2023-02-24T14:35:00;100685.41;;;17.52;50.19
59190;BME280;50749;51.636;4.948;2023-02-24T14:37:29;100672.72;;;17.51;50.16
59190;BME280;50749;51.636;4.948;2023-02-24T14:39:57;100683.34;;;17.49;49.88
59190;BME280;50749;51.636;4.948;2023-02-24T14:42:25;100675.06;;;17.49;49.94
59190;BME280;50749;51.636;4.948;2023-02-24T14:44:53;100681.38;;;17.49;49.88
59190;BME280;50749;51.636;4.948;2023-02-24T14:47:22;100668.25;;;17.46;49.74
59190;BME280;50749;51.636;4.948;2023-02-24T14:50:00;100675.31;;;17.43;49.72
59190;BME280;50749;51.636;4.948;2023-02-24T14:55:02;100679.25;;;17.42;49.87
59190;BME280;50749;51.636;4.948;2023-02-24T14:57:38;100670.50;;;17.40;49.63
59190;BME280;50749;51.636;4.948;2023-02-24T15:00:16;100667.31;;;17.38;49.80
59190;BME280;50749;51.636;4.948;2023-02-24T15:03:12;100668.91;;;17.39;49.45
59190;BME280;50749;51.636;4.948;2023-02-24T15:05:45;100677.53;;;17.38;49.47
59190;BME280;50749;51.636;4.948;2023-02-24T15:10:54;100683.78;;;17.35;49.62
59190;BME280;50749;51.636;4.948;2023-02-24T15:13:34;100682.56;;;17.32;49.37
59190;BME280;50749;51.636;4.948;2023-02-24T15:16:10;100668.28;;;17.30;49.64
59190;BME280;50749;51.636;4.948;2023-02-24T15:18:37;100672.56;;;17.27;49.43
59190;BME280;50749;51.636;4.948;2023-02-24T15:21:05;100668.22;;;17.26;49.33
59190;BME280;50749;51.636;4.948;2023-02-24T15:23:37;100675.31;;;17.27;49.18
59190;BME280;50749;51.636;4.948;2023-02-24T15:26:06;100669.09;;;17.31;48.99
59190;BME280;50749;51.636;4.948;2023-02-24T15:28:35;100667.03;;;17.27;49.30
59190;BME280;50749;51.636;4.948;2023-02-24T15:31:05;100658.66;;;17.24;49.49
59190;BME280;50749;51.636;4.948;2023-02-24T15:33:41;100655.91;;;17.24;49.39
59190;BME280;50749;51.636;4.948;2023-02-24T15:36:16;100659.03;;;17.22;49.19
59190;BME280;50749;51.636;4.948;2023-02-24T15:38:44;100660.56;;;17.20;49.02
59190;BME280;50749;51.636;4.948;2023-02-24T15:41:12;100674.38;;;17.20;49.28
59190;BME280;50749;51.636;4.948;2023-02-24T15:46:14;100661.53;;;17.12;49.37
59190;BME280;50749;51.636;4.948;2023-02-24T15:48:43;100667.16;;;17.15;49.02
59190;BME280;50749;51.636;4.948;2023-02-24T15:53:51;100663.81;;;17.09;49.54
59190;BME280;50749;51.636;4.948;2023-02-24T15:56:17;100662.25;;;17.08;49.72
59190;BME280;50749;51.636;4.948;2023-02-24T15:58:43;100662.59;;;17.07;49.70
59190;BME280;50749;51.636;4.948;2023-02-24T16:01:10;100654.66;;;17.05;49.49
59190;BME280;50749;51.636;4.948;2023-02-24T16:03:37;100657.41;;;17.05;49.39
59190;BME280;50749;51.636;4.948;2023-02-24T16:06:03;100653.41;;;17.03;49.41
59190;BME280;50749;51.636;4.948;2023-02-24T16:08:29;100653.41;;;17.03;49.61
59190;BME280;50749;51.636;4.948;2023-02-24T16:10:55;100660.97;;;17.06;49.42
59190;BME280;50749;51.636;4.948;2023-02-24T16:13:24;100656.16;;;17.03;49.86
59190;BME280;50749;51.636;4.948;2023-02-24T16:15:51;100668.47;;;17.05;49.75